createdAt,value
2023-01-09T05:30:24.461Z,27.90
2023-01-09T05:35:26.202Z,29.83
2023-01-09T05:40:32.315Z,28.63
2023-01-09T05:45:40.272Z,29.40
2023-01-09T05:50:41.975Z,28.00
2023-01-09T05:55:44.025Z,29.17
2023-01-09T06:00:45.961Z,28.17
2023-01-09T06:05:47.912Z,28.67
2023-01-09T06:10:49.568Z,28.07
2023-01-09T06:15:51.312Z,28.70
2023-01-09T06:20:53.014Z,29.40
2023-01-09T06:25:54.655Z,29.30
2023-01-09T06:30:56.277Z,29.03
2023-01-09T06:35:58.423Z,29.10
2023-01-09T06:41:00.142Z,30.03
2023-01-09T06:46:01.863Z,29.07
2023-01-09T06:51:03.723Z,29.70
2023-01-09T06:56:05.707Z,31.17
2023-01-09T07:01:07.423Z,31.03
2023-01-09T07:06:09.461Z,31.47
2023-01-09T07:11:11.085Z,30.60
2023-01-09T07:16:12.831Z,30.03
2023-01-09T07:21:14.537Z,30.10
2023-01-09T07:26:16.168Z,30.10
2023-01-09T07:31:17.784Z,30.27
2023-01-09T07:36:19.683Z,29.63
2023-01-09T07:41:21.336Z,28.73
2023-01-09T07:46:23.255Z,29.07
2023-01-09T07:51:25.155Z,30.57
2023-01-09T07:56:26.869Z,29.47
2023-01-09T08:01:28.685Z,29.03
2023-01-09T08:06:31.589Z,29.67
2023-01-09T08:11:33.200Z,28.90
2023-01-09T08:16:34.932Z,27.97
2023-01-09T08:21:36.528Z,28.60
2023-01-09T08:26:38.109Z,30.77
2023-01-09T08:31:40.210Z,29.07
2023-01-09T08:36:42.033Z,30.57
2023-01-09T08:42:02.543Z,28.73
2023-01-09T08:47:07.380Z,23.23
2023-01-09T08:52:09.883Z,14.67
2023-01-09T08:57:11.546Z,14.37
2023-01-09T09:02:13.209Z,14.03
2023-01-09T09:07:14.831Z,15.30
2023-01-09T09:12:16.495Z,14.40
2023-01-09T09:17:18.449Z,14.37
2023-01-09T09:22:20.151Z,14.53
2023-01-09T09:27:21.892Z,15.40
2023-01-09T09:32:23.705Z,15.13
2023-01-09T09:37:25.448Z,15.23
2023-01-09T09:42:54.264Z,15.83
2023-01-09T09:48:01.536Z,15.93
2023-01-09T09:53:29.637Z,15.80
2023-01-09T09:58:51.477Z,15.93
2023-01-09T10:04:00.768Z,16.37
2023-01-09T10:09:06.422Z,15.67
2023-01-09T10:14:23.193Z,14.00
2023-01-09T10:20:04.420Z,13.90
2023-01-09T10:25:11.802Z,13.60
2023-01-09T10:30:44.600Z,12.73
2023-01-09T10:36:04.989Z,13.50
2023-01-09T10:41:14.243Z,13.10
2023-01-09T10:46:25.890Z,13.70
2023-01-09T10:51:40.891Z,13.57
2023-01-09T10:56:48.470Z,12.70
2023-01-09T11:01:50.302Z,12.60
2023-01-09T11:06:58.700Z,12.53
2023-01-09T11:12:00.347Z,12.80
2023-01-09T11:17:03.970Z,13.17
2023-01-09T11:22:17.414Z,12.83
2023-01-09T11:27:24.437Z,13.50
2023-01-09T11:32:26.189Z,13.53
2023-01-09T11:37:30.463Z,13.17
2023-01-09T11:42:50.954Z,13.53
2023-01-09T11:47:52.698Z,13.70
2023-01-09T11:53:17.438Z,13.83
2023-01-09T11:58:21.917Z,14.03
2023-01-09T12:03:26.664Z,13.77
2023-01-09T12:08:50.221Z,14.20
2023-01-09T12:14:02.400Z,14.00
2023-01-09T12:19:34.467Z,13.70
2023-01-09T12:24:44.171Z,13.33
2023-01-09T12:30:07.881Z,13.50
2023-01-09T12:35:39.553Z,13.83
2023-01-09T12:41:07.058Z,14.13
2023-01-09T12:46:34.118Z,14.17
2023-01-09T12:51:44.104Z,14.20
2023-01-09T12:57:01.426Z,14.43
2023-01-09T13:02:09.300Z,14.30
2023-01-09T13:07:52.612Z,14.57
2023-01-09T13:12:56.123Z,14.40
2023-01-09T13:18:34.007Z,14.33
2023-01-09T13:24:02.609Z,15.00
2023-01-09T13:29:21.809Z,14.80
2023-01-09T13:34:27.388Z,14.33
2023-01-09T13:39:35.459Z,14.70
2023-01-09T13:44:37.551Z,16.57
2023-01-09T13:49:42.614Z,15.30
2023-01-09T13:54:47.409Z,16.20
2023-01-09T13:59:50.106Z,15.03
2023-01-09T14:04:51.809Z,15.37
2023-01-09T14:10:05.365Z,15.07
2023-01-09T14:15:23.493Z,15.70
2023-01-09T14:20:33.766Z,15.80
2023-01-09T14:25:39.092Z,17.33
2023-01-09T14:30:52.810Z,17.80
2023-01-09T14:36:11.865Z,22.13
2023-01-09T14:41:48.052Z,21.50
2023-01-09T14:46:52.010Z,20.03
2023-01-09T14:51:55.479Z,20.47
2023-01-09T14:56:57.125Z,20.93
2023-01-09T15:02:02.386Z,30.33
2023-01-09T15:07:06.065Z,21.50
2023-01-09T15:12:13.331Z,19.17
2023-01-09T15:17:35.008Z,18.73
2023-01-09T15:22:38.264Z,17.40
2023-01-09T15:27:58.126Z,17.20
2023-01-09T15:33:05.532Z,16.67
2023-01-09T15:38:11.916Z,16.07
2023-01-09T15:43:14.722Z,16.27
2023-01-09T15:48:22.243Z,16.40
2023-01-09T15:53:26.907Z,16.50
2023-01-09T15:58:33.238Z,17.73
2023-01-09T16:03:38.898Z,17.37
2023-01-09T16:08:47.600Z,15.60
2023-01-09T16:13:50.069Z,15.23
2023-01-09T16:18:54.387Z,14.80
2023-01-09T16:24:20.230Z,15.20
2023-01-09T16:29:35.591Z,14.80
2023-01-09T16:34:42.481Z,15.50
2023-01-09T16:40:22.146Z,16.33
2023-01-09T16:45:26.428Z,16.07
2023-01-09T16:50:28.497Z,16.27
2023-01-09T16:55:30.263Z,16.03
2023-01-09T17:00:32.144Z,16.60
2023-01-09T17:05:33.846Z,17.00
2023-01-09T17:10:35.509Z,17.70
2023-01-09T17:15:37.200Z,18.63
2023-01-09T17:20:40.988Z,19.03
2023-01-09T17:26:01.940Z,16.87
2023-01-09T17:31:06.563Z,18.50
2023-01-09T17:36:34.583Z,23.13
2023-01-09T17:41:36.311Z,22.40
2023-01-09T17:46:40.935Z,21.33
2023-01-09T17:51:43.064Z,17.20
2023-01-09T17:56:52.119Z,18.20
2023-01-09T18:01:54.278Z,17.60
2023-01-09T18:06:58.242Z,18.27
2023-01-09T18:12:07.622Z,18.23
2023-01-09T18:17:12.346Z,16.40
2023-01-09T18:22:14.245Z,16.97
2023-01-09T18:27:17.296Z,16.80
2023-01-09T18:32:19.114Z,17.77
2023-01-09T18:37:20.959Z,19.67
2023-01-09T18:42:25.839Z,20.53
2023-01-09T18:47:27.614Z,17.00
2023-01-09T18:52:30.797Z,17.20
2023-01-09T18:57:32.820Z,18.30
2023-01-09T19:02:36.949Z,16.40
2023-01-09T19:07:43.743Z,17.53
2023-01-09T19:12:45.347Z,19.53
2023-01-09T19:17:50.033Z,19.80
2023-01-09T19:22:51.853Z,18.57
2023-01-09T19:27:55.748Z,19.10
2023-01-09T19:32:57.424Z,19.20
2023-01-09T19:37:59.058Z,18.70
2023-01-09T19:43:00.770Z,16.30
2023-01-09T19:48:02.353Z,15.83
2023-01-09T19:53:04.038Z,15.63
2023-01-09T19:58:05.740Z,15.97
2023-01-09T20:03:07.389Z,15.80
2023-01-09T20:08:09.364Z,16.20
2023-01-09T20:13:11.078Z,16.17
2023-01-09T20:18:12.722Z,15.77
2023-01-09T20:23:16.908Z,16.27
2023-01-09T20:28:18.567Z,16.37
